sensor_id;sensor_type;location;lat;lon;timestamp;temperature;humidity
13245;DHT22;6689;53.400;12.486;2023-03-01T00:02:26;0.10;99.90
13245;DHT22;6689;53.400;12.486;2023-03-01T00:04:54;0.10;99.90
13245;DHT22;6689;53.400;12.486;2023-03-01T00:07:21;0.10;99.90
13245;DHT22;6689;53.400;12.486;2023-03-01T00:09:49;0.10;99.90
13245;DHT22;6689;53.400;12.486;2023-03-01T00:12:19;0.00;99.90
13245;DHT22;6689;53.400;12.486;2023-03-01T00:14:47;0.10;99.90
13245;DHT22;6689;53.400;12.486;2023-03-01T00:17:14;0.10;99.90
13245;DHT22;6689;53.400;12.486;2023-03-01T00:19:45;0.10;99.90
13245;DHT22;6689;53.400;12.486;2023-03-01T00:22:13;0.10;99.90
13245;DHT22;6689;53.400;12.486;2023-03-01T00:24:40;0.10;99.90
13245;DHT22;6689;53.400;12.486;2023-03-01T00:27:07;0.10;99.90
13245;DHT22;6689;53.400;12.486;2023-03-01T00:29:35;0.10;99.90
13245;DHT22;6689;53.400;12.486;2023-03-01T00:32:02;0.10;99.90
13245;DHT22;6689;53.400;12.486;2023-03-01T00:34:29;0.00;99.90
13245;DHT22;6689;53.400;12.486;2023-03-01T00:36:58;0.00;99.90
13245;DHT22;6689;53.400;12.486;2023-03-01T00:39:31;0.00;99.90
13245;DHT22;6689;53.400;12.486;2023-03-01T00:41:59;0.00;99.90
13245;DHT22;6689;53.400;12.486;2023-03-01T00:44:26;-0.10;99.90
13245;DHT22;6689;53.400;12.486;2023-03-01T00:46:54;-0.10;99.90
13245;DHT22;6689;53.400;12.486;2023-03-01T00:49:21;-0.10;99.90
13245;DHT22;6689;53.400;12.486;2023-03-01T00:51:50;-0.10;99.90
13245;DHT22;6689;53.400;12.486;2023-03-01T00:54:18;-0.20;99.90
13245;DHT22;6689;53.400;12.486;2023-03-01T00:56:46;-0.20;99.90
13245;DHT22;6689;53.400;12.486;2023-03-01T00:59:14;-0.20;99.90
13245;DHT22;6689;53.400;12.486;2023-03-01T01:01:41;-0.20;99.90
13245;DHT22;6689;53.400;12.486;2023-03-01T01:04:11;-0.20;99.90
13245;DHT22;6689;53.400;12.486;2023-03-01T01:06:39;-0.30;99.90
13245;DHT22;6689;53.400;12.486;2023-03-01T01:09:09;-0.30;99.90
13245;DHT22;6689;53.400;12.486;2023-03-01T01:11:44;-0.40;99.90
13245;DHT22;6689;53.400;12.486;2023-03-01T01:14:11;-0.40;99.90
13245;DHT22;6689;53.400;12.486;2023-03-01T01:16:39;-0.40;99.90
13245;DHT22;6689;53.400;12.486;2023-03-01T01:19:06;-0.40;99.90
13245;DHT22;6689;53.400;12.486;2023-03-01T01:21:34;-0.30;99.90
13245;DHT22;6689;53.400;12.486;2023-03-01T01:24:03;-0.30;99.90
13245;DHT22;6689;53.400;12.486;2023-03-01T01:26:32;-0.30;99.90
13245;DHT22;6689;53.400;12.486;2023-03-01T01:29:02;-0.40;99.90
13245;DHT22;6689;53.400;12.486;2023-03-01T01:31:30;-0.40;99.90
13245;DHT22;6689;53.400;12.486;2023-03-01T01:33:58;-0.40;99.90
13245;DHT22;6689;53.400;12.486;2023-03-01T01:36:26;-0.40;99.90
13245;DHT22;6689;53.400;12.486;2023-03-01T01:38:53;-0.40;99.90
13245;DHT22;6689;53.400;12.486;2023-03-01T01:41:21;-0.50;99.90
13245;DHT22;6689;53.400;12.486;2023-03-01T01:44:09;-0.40;99.90
13245;DHT22;6689;53.400;12.486;2023-03-01T01:46:40;-0.50;99.90
13245;DHT22;6689;53.400;12.486;2023-03-01T01:49:14;-0.40;99.90
13245;DHT22;6689;53.400;12.486;2023-03-01T01:51:46;-0.40;99.90
13245;DHT22;6689;53.400;12.486;2023-03-01T01:54:19;-0.40;99.90
13245;DHT22;6689;53.400;12.486;2023-03-01T01:56:52;-0.40;99.90
13245;DHT22;6689;53.400;12.486;2023-03-01T01:59:20;-0.50;99.90
13245;DHT22;6689;53.400;12.486;2023-03-01T02:01:51;-0.50;99.90
13245;DHT22;6689;53.400;12.486;2023-03-01T02:04:20;-0.50;99.90
13245;DHT22;6689;53.400;12.486;2023-03-01T02:06:49;-0.50;99.90
13245;DHT22;6689;53.400;12.486;2023-03-01T02:09:19;-0.50;99.90
13245;DHT22;6689;53.400;12.486;2023-03-01T02:11:48;-0.50;99.90
13245;DHT22;6689;53.400;12.486;2023-03-01T02:14:16;-0.60;99.90
13245;DHT22;6689;53.400;12.486;2023-03-01T02:16:43;-0.60;99.90
13245;DHT22;6689;53.400;12.486;2023-03-01T02:19:22;-0.60;99.90
13245;DHT22;6689;53.400;12.486;2023-03-01T02:21:56;-0.60;99.90
13245;DHT22;6689;53.400;12.486;2023-03-01T02:24:31;-0.60;99.90
13245;DHT22;6689;53.400;12.486;2023-03-01T02:27:00;-0.60;99.90
13245;DHT22;6689;53.400;12.486;2023-03-01T02:29:29;-0.70;99.90
13245;DHT22;6689;53.400;12.486;2023-03-01T02:31:58;-0.70;99.90
13245;DHT22;6689;53.400;12.486;2023-03-01T02:34:28;-0.70;99.90
13245;DHT22;6689;53.400;12.486;2023-03-01T02:36:59;-0.60;99.90
13245;DHT22;6689;53.400;12.486;2023-03-01T02:39:33;-0.60;99.90
13245;DHT22;6689;53.400;12.486;2023-03-01T02:42:02;-0.70;99.90
13245;DHT22;6689;53.400;12.486;2023-03-01T02:44:32;-0.60;99.90
13245;DHT22;6689;53.400;12.486;2023-03-01T02:47:02;-0.70;99.90
13245;DHT22;6689;53.400;12.486;2023-03-01T02:49:34;-0.70;99.90
13245;DHT22;6689;53.400;12.486;2023-03-01T02:52:25;-0.80;99.90
13245;DHT22;6689;53.400;12.486;2023-03-01T02:54:58;-0.80;99.90
13245;DHT22;6689;53.400;12.486;2023-03-01T02:57:29;-0.80;99.90
13245;DHT22;6689;53.400;12.486;2023-03-01T03:00:02;-0.80;99.90
13245;DHT22;6689;53.400;12.486;2023-03-01T03:02:32;-0.80;99.90
13245;DHT22;6689;53.400;12.486;2023-03-01T03:05:08;-0.90;99.90
13245;DHT22;6689;53.400;12.486;2023-03-01T03:07:38;-0.80;99.90
13245;DHT22;6689;53.400;12.486;2023-03-01T03:10:07;-0.90;99.90
13245;DHT22;6689;53.400;12.486;2023-03-01T03:12:37;-0.90;99.90
13245;DHT22;6689;53.400;12.486;2023-03-01T03:15:08;-0.90;99.90
13245;DHT22;6689;53.400;12.486;2023-03-01T03:17:36;-0.80;99.90
13245;DHT22;6689;53.400;12.486;2023-03-01T03:20:05;-0.70;99.90
13245;DHT22;6689;53.400;12.486;2023-03-01T03:22:36;-0.90;99.90
13245;DHT22;6689;53.400;12.486;2023-03-01T03:25:05;-0.90;99.90
13245;DHT22;6689;53.400;12.486;2023-03-01T03:27:36;-0.90;99.90
13245;DHT22;6689;53.400;12.486;2023-03-01T03:30:06;-0.90;99.90
13245;DHT22;6689;53.400;12.486;2023-03-01T03:32:35;-0.90;99.90
13245;DHT22;6689;53.400;12.486;2023-03-01T03:35:02;-0.90;99.90
13245;DHT22;6689;53.400;12.486;2023-03-01T03:37:35;-0.90;99.90
13245;DHT22;6689;53.400;12.486;2023-03-01T03:40:20;-0.90;99.90
13245;DHT22;6689;53.400;12.486;2023-03-01T03:42:48;-0.90;99.90
13245;DHT22;6689;53.400;12.486;2023-03-01T03:45:17;-0.90;99.90
13245;DHT22;6689;53.400;12.486;2023-03-01T03:47:45;-0.90;99.90
13245;DHT22;6689;53.400;12.486;2023-03-01T03:50:14;-1.00;99.90
13245;DHT22;6689;53.400;12.486;2023-03-01T03:52:42;-1.00;99.90
13245;DHT22;6689;53.400;12.486;2023-03-01T03:55:11;-1.00;99.90
13245;DHT22;6689;53.400;12.486;2023-03-01T03:57:41;-1.00;99.90
13245;DHT22;6689;53.400;12.486;2023-03-01T04:00:11;-1.00;99.90
13245;DHT22;6689;53.400;12.486;2023-03-01T04:02:40;-1.00;99.90
13245;DHT22;6689;53.400;12.486;2023-03-01T04:05:09;-1.00;99.90
13245;DHT22;6689;53.400;12.486;2023-03-01T04:07:38;-1.00;99.90
13245;DHT22;6689;53.400;12.486;2023-03-01T04:10:08;-0.90;99.90
13245;DHT22;6689;53.400;12.486;2023-03-01T04:12:36;-1.10;99.90
13245;DHT22;6689;53.400;12.486;2023-03-01T04:15:04;-1.10;99.90
13245;DHT22;6689;53.400;12.486;2023-03-01T04:17:40;-1.10;99.90
13245;DHT22;6689;53.400;12.486;2023-03-01T04:20:09;-1.10;99.90
13245;DHT22;6689;53.400;12.486;2023-03-01T04:22:37;-1.10;99.90
13245;DHT22;6689;53.400;12.486;2023-03-01T04:25:04;-1.10;99.90
13245;DHT22;6689;53.400;12.486;2023-03-01T04:27:33;-1.10;99.90
13245;DHT22;6689;53.400;12.486;2023-03-01T04:30:01;-1.10;99.90
13245;DHT22;6689;53.400;12.486;2023-03-01T04:32:28;-1.10;99.90
13245;DHT22;6689;53.400;12.486;2023-03-01T04:34:57;-1.10;99.90
13245;DHT22;6689;53.400;12.486;2023-03-01T04:37:24;-1.20;99.90
13245;DHT22;6689;53.400;12.486;2023-03-01T04:39:52;-1.20;99.90
13245;DHT22;6689;53.400;12.486;2023-03-01T04:42:20;-1.20;99.90
13245;DHT22;6689;53.400;12.486;2023-03-01T04:44:47;-1.20;99.90
13245;DHT22;6689;53.400;12.486;2023-03-01T04:47:16;-1.30;99.90
13245;DHT22;6689;53.400;12.486;2023-03-01T04:49:44;-1.30;99.90
13245;DHT22;6689;53.400;12.486;2023-03-01T04:52:12;-1.30;99.90
13245;DHT22;6689;53.400;12.486;2023-03-01T04:54:40;-1.20;99.90
13245;DHT22;6689;53.400;12.486;2023-03-01T04:57:07;-1.30;99.90
13245;DHT22;6689;53.400;12.486;2023-03-01T04:59:35;-1.30;99.90
13245;DHT22;6689;53.400;12.486;2023-03-01T05:02:02;-1.30;99.90
13245;DHT22;6689;53.400;12.486;2023-03-01T05:04:30;-1.30;99.90
13245;DHT22;6689;53.400;12.486;2023-03-01T05:06:57;-1.30;99.90
13245;DHT22;6689;53.400;12.486;2023-03-01T05:09:27;-1.30;99.90
13245;DHT22;6689;53.400;12.486;2023-03-01T05:11:54;-1.30;99.90
13245;DHT22;6689;53.400;12.486;2023-03-01T05:14:21;-1.30;99.90
13245;DHT22;6689;53.400;12.486;2023-03-01T05:16:49;-1.30;99.90
13245;DHT22;6689;53.400;12.486;2023-03-01T05:19:16;-1.40;99.90
13245;DHT22;6689;53.400;12.486;2023-03-01T05:21:48;-1.40;99.90
13245;DHT22;6689;53.400;12.486;2023-03-01T05:24:33;-1.40;99.90
13245;DHT22;6689;53.400;12.486;2023-03-01T05:27:01;-1.40;99.90
13245;DHT22;6689;53.400;12.486;2023-03-01T05:29:30;-1.40;99.90
13245;DHT22;6689;53.400;12.486;2023-03-01T05:32:01;-1.50;99.90
13245;DHT22;6689;53.400;12.486;2023-03-01T05:34:31;-1.40;99.90
13245;DHT22;6689;53.400;12.486;2023-03-01T05:36:59;-1.40;99.90
13245;DHT22;6689;53.400;12.486;2023-03-01T05:39:28;-1.40;99.90
13245;DHT22;6689;53.400;12.486;2023-03-01T05:42:00;-1.40;99.90
13245;DHT22;6689;53.400;12.486;2023-03-01T05:44:28;-1.40;99.90
13245;DHT22;6689;53.400;12.486;2023-03-01T05:46:56;-1.40;99.90
13245;DHT22;6689;53.400;12.486;2023-03-01T05:49:24;-1.40;99.90
13245;DHT22;6689;53.400;12.486;2023-03-01T05:51:55;-1.50;99.90
13245;DHT22;6689;53.400;12.486;2023-03-01T05:54:23;-1.50;99.90
13245;DHT22;6689;53.400;12.486;2023-03-01T05:56:50;-1.50;99.90
13245;DHT22;6689;53.400;12.486;2023-03-01T05:59:18;-1.50;99.90
13245;DHT22;6689;53.400;12.486;2023-03-01T06:01:46;-1.60;99.90
13245;DHT22;6689;53.400;12.486;2023-03-01T06:04:13;-1.60;99.90
13245;DHT22;6689;53.400;12.486;2023-03-01T06:06:40;-1.60;99.90
13245;DHT22;6689;53.400;12.486;2023-03-01T06:09:07;-1.60;99.90
13245;DHT22;6689;53.400;12.486;2023-03-01T06:11:36;-1.60;99.90
13245;DHT22;6689;53.400;12.486;2023-03-01T06:14:05;-1.60;99.90
13245;DHT22;6689;53.400;12.486;2023-03-01T06:16:34;-1.50;99.90
13245;DHT22;6689;53.400;12.486;2023-03-01T06:19:01;-1.50;99.90
13245;DHT22;6689;53.400;12.486;2023-03-01T06:21:29;-1.50;99.90
13245;DHT22;6689;53.400;12.486;2023-03-01T06:23:56;-1.40;99.90
13245;DHT22;6689;53.400;12.486;2023-03-01T06:26:24;-1.40;99.90
13245;DHT22;6689;53.400;12.486;2023-03-01T06:28:51;-1.40;99.90
13245;DHT22;6689;53.400;12.486;2023-03-01T06:31:18;-1.40;99.90
13245;DHT22;6689;53.400;12.486;2023-03-01T06:33:47;-1.30;99.90
13245;DHT22;6689;53.400;12.486;2023-03-01T06:36:14;-1.20;99.90
13245;DHT22;6689;53.400;12.486;2023-03-01T06:38:44;-1.20;99.90
13245;DHT22;6689;53.400;12.486;2023-03-01T06:41:11;-1.10;99.90
13245;DHT22;6689;53.400;12.486;2023-03-01T06:43:38;-1.10;99.90
13245;DHT22;6689;53.400;12.486;2023-03-01T06:46:06;-1.00;99.90
13245;DHT22;6689;53.400;12.486;2023-03-01T06:48:34;-1.00;99.90
13245;DHT22;6689;53.400;12.486;2023-03-01T06:51:06;-0.90;99.90
13245;DHT22;6689;53.400;12.486;2023-03-01T06:53:33;-0.80;99.90
13245;DHT22;6689;53.400;12.486;2023-03-01T06:56:01;-0.50;99.90
13245;DHT22;6689;53.400;12.486;2023-03-01T06:58:28;-0.50;99.90
13245;DHT22;6689;53.400;12.486;2023-03-01T07:00:55;-0.30;99.90
13245;DHT22;6689;53.400;12.486;2023-03-01T07:03:23;-0.20;99.90
13245;DHT22;6689;53.400;12.486;2023-03-01T07:05:50;0.00;99.90
13245;DHT22;6689;53.400;12.486;2023-03-01T07:08:19;0.20;99.90
13245;DHT22;6689;53.400;12.486;2023-03-01T07:10:47;0.40;99.90
13245;DHT22;6689;53.400;12.486;2023-03-01T07:13:15;0.70;99.90
13245;DHT22;6689;53.400;12.486;2023-03-01T07:15:45;0.90;99.90
13245;DHT22;6689;53.400;12.486;2023-03-01T07:18:12;1.20;99.90
13245;DHT22;6689;53.400;12.486;2023-03-01T07:20:39;1.40;99.90
13245;DHT22;6689;53.400;12.486;2023-03-01T07:23:07;1.70;99.90
13245;DHT22;6689;53.400;12.486;2023-03-01T07:25:35;2.00;99.90
13245;DHT22;6689;53.400;12.486;2023-03-01T07:28:03;2.20;99.90
13245;DHT22;6689;53.400;12.486;2023-03-01T07:30:30;2.40;99.90
13245;DHT22;6689;53.400;12.486;2023-03-01T07:32:58;2.70;99.90
13245;DHT22;6689;53.400;12.486;2023-03-01T07:35:26;3.00;99.90
13245;DHT22;6689;53.400;12.486;2023-03-01T07:37:54;3.20;99.90
13245;DHT22;6689;53.400;12.486;2023-03-01T07:40:22;3.60;99.90
13245;DHT22;6689;53.400;12.486;2023-03-01T07:42:55;3.90;99.60
13245;DHT22;6689;53.400;12.486;2023-03-01T07:45:22;4.00;94.40
13245;DHT22;6689;53.400;12.486;2023-03-01T07:47:51;4.10;85.60
13245;DHT22;6689;53.400;12.486;2023-03-01T07:50:18;5.10;99.90
13245;DHT22;6689;53.400;12.486;2023-03-01T07:52:46;6.50;67.60
13245;DHT22;6689;53.400;12.486;2023-03-01T07:55:14;8.90;30.20
13245;DHT22;6689;53.400;12.486;2023-03-01T07:57:42;10.40;1.00
13245;DHT22;6689;53.400;12.486;2023-03-01T08:00:13;11.70;1.00
13245;DHT22;6689;53.400;12.486;2023-03-01T08:02:41;12.60;1.00
13245;DHT22;6689;53.400;12.486;2023-03-01T08:05:08;13.70;1.00
13245;DHT22;6689;53.400;12.486;2023-03-01T08:07:36;14.10;1.00
13245;DHT22;6689;53.400;12.486;2023-03-01T08:10:04;14.60;1.00
13245;DHT22;6689;53.400;12.486;2023-03-01T08:12:32;15.60;1.00
13245;DHT22;6689;53.400;12.486;2023-03-01T08:15:00;16.50;1.00
13245;DHT22;6689;53.400;12.486;2023-03-01T08:17:29;17.10;1.00
13245;DHT22;6689;53.400;12.486;2023-03-01T08:19:56;17.30;1.00
13245;DHT22;6689;53.400;12.486;2023-03-01T08:22:23;17.40;1.00
13245;DHT22;6689;53.400;12.486;2023-03-01T08:24:51;17.40;1.00
13245;DHT22;6689;53.400;12.486;2023-03-01T08:27:18;18.10;1.00
13245;DHT22;6689;53.400;12.486;2023-03-01T08:29:45;18.00;1.00
13245;DHT22;6689;53.400;12.486;2023-03-01T08:32:13;17.90;1.00
13245;DHT22;6689;53.400;12.486;2023-03-01T08:34:41;18.00;1.00
13245;DHT22;6689;53.400;12.486;2023-03-01T08:37:08;18.40;1.00
13245;DHT22;6689;53.400;12.486;2023-03-01T08:39:36;18.40;1.00
13245;DHT22;6689;53.400;12.486;2023-03-01T08:42:06;18.30;1.00
13245;DHT22;6689;53.400;12.486;2023-03-01T08:44:33;17.60;1.00
13245;DHT22;6689;53.400;12.486;2023-03-01T08:47:00;17.20;1.00
13245;DHT22;6689;53.400;12.486;2023-03-01T08:49:29;16.40;1.00
13245;DHT22;6689;53.400;12.486;2023-03-01T08:52:01;16.80;1.00
13245;DHT22;6689;53.400;12.486;2023-03-01T08:54:29;15.50;1.00
13245;DHT22;6689;53.400;12.486;2023-03-01T08:56:56;13.40;1.00
13245;DHT22;6689;53.400;12.486;2023-03-01T08:59:25;11.50;1.00
13245;DHT22;6689;53.400;12.486;2023-03-01T09:01:55;10.60;1.00
13245;DHT22;6689;53.400;12.486;2023-03-01T09:04:23;9.70;1.00
13245;DHT22;6689;53.400;12.486;2023-03-01T09:06:50;9.40;1.00
13245;DHT22;6689;53.400;12.486;2023-03-01T09:09:19;9.10;1.00
13245;DHT22;6689;53.400;12.486;2023-03-01T09:11:51;8.70;1.00
13245;DHT22;6689;53.400;12.486;2023-03-01T09:14:18;8.20;1.00
13245;DHT22;6689;53.400;12.486;2023-03-01T09:16:46;7.90;1.00
13245;DHT22;6689;53.400;12.486;2023-03-01T09:19:13;7.60;1.00
13245;DHT22;6689;53.400;12.486;2023-03-01T09:21:40;7.40;7.30
13245;DHT22;6689;53.400;12.486;2023-03-01T09:24:22;7.20;6.70
13245;DHT22;6689;53.400;12.486;2023-03-01T09:26:51;6.90;1.00
13245;DHT22;6689;53.400;12.486;2023-03-01T09:29:19;6.70;8.50
13245;DHT22;6689;53.400;12.486;2023-03-01T09:31:46;6.60;11.90
13245;DHT22;6689;53.400;12.486;2023-03-01T09:34:14;6.40;19.30
13245;DHT22;6689;53.400;12.486;2023-03-01T09:36:44;6.40;27.50
13245;DHT22;6689;53.400;12.486;2023-03-01T09:39:12;6.40;30.20
13245;DHT22;6689;53.400;12.486;2023-03-01T09:41:50;6.40;17.60
13245;DHT22;6689;53.400;12.486;2023-03-01T09:44:33;6.50;16.90
13245;DHT22;6689;53.400;12.486;2023-03-01T09:47:02;6.50;11.00
13245;DHT22;6689;53.400;12.486;2023-03-01T09:49:31;6.50;15.50
13245;DHT22;6689;53.400;12.486;2023-03-01T09:52:03;6.60;11.50
13245;DHT22;6689;53.400;12.486;2023-03-01T09:54:33;6.60;10.40
13245;DHT22;6689;53.400;12.486;2023-03-01T09:57:17;6.70;7.50
13245;DHT22;6689;53.400;12.486;2023-03-01T10:00:02;6.80;1.00
13245;DHT22;6689;53.400;12.486;2023-03-01T10:02:38;6.90;1.00
13245;DHT22;6689;53.400;12.486;2023-03-01T10:05:12;7.00;4.00
13245;DHT22;6689;53.400;12.486;2023-03-01T10:07:46;7.10;4.90
13245;DHT22;6689;53.400;12.486;2023-03-01T10:10:18;7.20;13.80
13245;DHT22;6689;53.400;12.486;2023-03-01T10:12:50;7.40;1.00
13245;DHT22;6689;53.400;12.486;2023-03-01T10:15:22;7.50;6.90
13245;DHT22;6689;53.400;12.486;2023-03-01T10:17:55;7.50;1.00
13245;DHT22;6689;53.400;12.486;2023-03-01T10:20:24;7.60;1.00
13245;DHT22;6689;53.400;12.486;2023-03-01T10:22:52;7.70;3.90
13245;DHT22;6689;53.400;12.486;2023-03-01T10:25:44;7.70;10.40
13245;DHT22;6689;53.400;12.486;2023-03-01T10:28:17;7.80;3.40
13245;DHT22;6689;53.400;12.486;2023-03-01T10:30:44;7.90;1.00
13245;DHT22;6689;53.400;12.486;2023-03-01T10:33:17;7.90;1.00
13245;DHT22;6689;53.400;12.486;2023-03-01T10:35:47;8.00;1.00
13245;DHT22;6689;53.400;12.486;2023-03-01T10:38:16;8.20;1.00
13245;DHT22;6689;53.400;12.486;2023-03-01T10:40:55;8.30;1.00
13245;DHT22;6689;53.400;12.486;2023-03-01T10:43:26;8.40;1.00
13245;DHT22;6689;53.400;12.486;2023-03-01T10:45:55;8.50;1.00
13245;DHT22;6689;53.400;12.486;2023-03-01T10:48:24;8.50;1.00
13245;DHT22;6689;53.400;12.486;2023-03-01T10:51:06;8.50;1.00
13245;DHT22;6689;53.400;12.486;2023-03-01T10:53:34;8.70;1.00
13245;DHT22;6689;53.400;12.486;2023-03-01T10:56:05;8.90;1.00
13245;DHT22;6689;53.400;12.486;2023-03-01T10:58:36;9.00;1.00
13245;DHT22;6689;53.400;12.486;2023-03-01T11:01:05;9.00;1.00
13245;DHT22;6689;53.400;12.486;2023-03-01T11:03:34;9.10;1.00
13245;DHT22;6689;53.400;12.486;2023-03-01T11:06:05;9.20;1.00
13245;DHT22;6689;53.400;12.486;2023-03-01T11:08:35;9.30;1.00
13245;DHT22;6689;53.400;12.486;2023-03-01T11:11:23;9.40;1.00
13245;DHT22;6689;53.400;12.486;2023-03-01T11:13:56;9.50;1.00
13245;DHT22;6689;53.400;12.486;2023-03-01T11:16:35;9.60;1.00
13245;DHT22;6689;53.400;12.486;2023-03-01T11:19:18;9.70;1.00
13245;DHT22;6689;53.400;12.486;2023-03-01T11:21:55;9.60;1.00
13245;DHT22;6689;53.400;12.486;2023-03-01T11:24:29;9.60;1.00
13245;DHT22;6689;53.400;12.486;2023-03-01T11:27:01;9.60;1.00
13245;DHT22;6689;53.400;12.486;2023-03-01T11:29:35;9.60;1.00
13245;DHT22;6689;53.400;12.486;2023-03-01T11:32:07;9.60;1.00
13245;DHT22;6689;53.400;12.486;2023-03-01T11:34:40;9.70;1.00
13245;DHT22;6689;53.400;12.486;2023-03-01T11:37:15;9.80;1.00
13245;DHT22;6689;53.400;12.486;2023-03-01T11:39:49;9.90;1.00
13245;DHT22;6689;53.400;12.486;2023-03-01T11:42:20;10.00;1.00
13245;DHT22;6689;53.400;12.486;2023-03-01T11:44:54;10.10;1.00
13245;DHT22;6689;53.400;12.486;2023-03-01T11:47:32;10.10;1.00
13245;DHT22;6689;53.400;12.486;2023-03-01T11:50:19;10.20;1.00
13245;DHT22;6689;53.400;12.486;2023-03-01T11:52:54;10.20;1.00
13245;DHT22;6689;53.400;12.486;2023-03-01T11:55:30;10.00;1.00
13245;DHT22;6689;53.400;12.486;2023-03-01T11:58:17;10.20;1.00
13245;DHT22;6689;53.400;12.486;2023-03-01T12:01:08;10.20;1.00
13245;DHT22;6689;53.400;12.486;2023-03-01T12:03:49;10.20;1.00
13245;DHT22;6689;53.400;12.486;2023-03-01T12:06:41;10.30;1.00
13245;DHT22;6689;53.400;12.486;2023-03-01T12:09:36;10.40;1.00
13245;DHT22;6689;53.400;12.486;2023-03-01T12:12:30;10.40;1.00
13245;DHT22;6689;53.400;12.486;2023-03-01T12:15:33;10.50;1.00
13245;DHT22;6689;53.400;12.486;2023-03-01T12:21:01;10.60;1.00
13245;DHT22;6689;53.400;12.486;2023-03-01T12:23:48;10.60;1.00
13245;DHT22;6689;53.400;12.486;2023-03-01T12:26:23;10.70;1.00
13245;DHT22;6689;53.400;12.486;2023-03-01T12:29:09;10.70;1.00
13245;DHT22;6689;53.400;12.486;2023-03-01T12:38:10;10.80;1.00
13245;DHT22;6689;53.400;12.486;2023-03-01T12:40:51;10.90;1.00
13245;DHT22;6689;53.400;12.486;2023-03-01T12:43:36;10.90;1.00
13245;DHT22;6689;53.400;12.486;2023-03-01T12:46:21;11.00;1.00
13245;DHT22;6689;53.400;12.486;2023-03-01T12:48:57;11.10;1.00
13245;DHT22;6689;53.400;12.486;2023-03-01T12:51:31;11.20;1.00
13245;DHT22;6689;53.400;12.486;2023-03-01T12:54:07;11.10;1.00
13245;DHT22;6689;53.400;12.486;2023-03-01T12:56:40;11.20;1.00
13245;DHT22;6689;53.400;12.486;2023-03-01T12:59:14;11.10;1.00
13245;DHT22;6689;53.400;12.486;2023-03-01T13:01:48;11.10;1.00
13245;DHT22;6689;53.400;12.486;2023-03-01T13:04:27;11.00;1.00
13245;DHT22;6689;53.400;12.486;2023-03-01T13:06:58;10.90;1.00
13245;DHT22;6689;53.400;12.486;2023-03-01T13:09:39;10.90;1.00
13245;DHT22;6689;53.400;12.486;2023-03-01T13:15:29;10.80;1.00
13245;DHT22;6689;53.400;12.486;2023-03-01T13:18:00;10.80;1.00
13245;DHT22;6689;53.400;12.486;2023-03-01T13:20:32;10.80;1.00
13245;DHT22;6689;53.400;12.486;2023-03-01T13:23:24;10.80;1.00
13245;DHT22;6689;53.400;12.486;2023-03-01T13:26:20;10.70;1.00
13245;DHT22;6689;53.400;12.486;2023-03-01T13:28:50;10.70;5.80
13245;DHT22;6689;53.400;12.486;2023-03-01T13:34:47;10.80;1.00
13245;DHT22;6689;53.400;12.486;2023-03-01T13:37:28;10.90;1.00
13245;DHT22;6689;53.400;12.486;2023-03-01T13:43:32;10.90;1.00
13245;DHT22;6689;53.400;12.486;2023-03-01T13:46:02;10.90;1.00
13245;DHT22;6689;53.400;12.486;2023-03-01T13:48:34;10.80;1.00
13245;DHT22;6689;53.400;12.486;2023-03-01T13:51:03;10.90;1.00
13245;DHT22;6689;53.400;12.486;2023-03-01T13:53:36;11.00;1.00
13245;DHT22;6689;53.400;12.486;2023-03-01T13:56:09;11.00;1.00
13245;DHT22;6689;53.400;12.486;2023-03-01T13:58:49;11.00;1.00
13245;DHT22;6689;53.400;12.486;2023-03-01T14:01:27;11.00;1.00
13245;DHT22;6689;53.400;12.486;2023-03-01T14:03:55;10.80;1.00
13245;DHT22;6689;53.400;12.486;2023-03-01T14:06:24;10.70;1.80
13245;DHT22;6689;53.400;12.486;2023-03-01T14:09:02;10.80;1.00
13245;DHT22;6689;53.400;12.486;2023-03-01T14:11:50;10.80;1.00
13245;DHT22;6689;53.400;12.486;2023-03-01T14:14:46;10.80;1.00
13245;DHT22;6689;53.400;12.486;2023-03-01T14:17:35;10.80;1.00
13245;DHT22;6689;53.400;12.486;2023-03-01T14:20:12;10.70;1.00
13245;DHT22;6689;53.400;12.486;2023-03-01T14:22:43;10.60;1.00
13245;DHT22;6689;53.400;12.486;2023-03-01T14:25:22;10.70;1.00
13245;DHT22;6689;53.400;12.486;2023-03-01T14:28:03;10.80;1.00
13245;DHT22;6689;53.400;12.486;2023-03-01T14:30:37;10.70;1.00
13245;DHT22;6689;53.400;12.486;2023-03-01T14:33:17;10.50;1.00
13245;DHT22;6689;53.400;12.486;2023-03-01T14:35:53;10.40;1.00
13245;DHT22;6689;53.400;12.486;2023-03-01T14:38:29;10.60;1.00
13245;DHT22;6689;53.400;12.486;2023-03-01T14:40:56;10.60;1.00
13245;DHT22;6689;53.400;12.486;2023-03-01T14:43:24;10.50;1.00
13245;DHT22;6689;53.400;12.486;2023-03-01T14:45:54;10.50;1.00
13245;DHT22;6689;53.400;12.486;2023-03-01T14:48:21;10.50;18.40
13245;DHT22;6689;53.400;12.486;2023-03-01T14:50:49;10.40;17.00
13245;DHT22;6689;53.400;12.486;2023-03-01T14:53:18;10.30;1.00
13245;DHT22;6689;53.400;12.486;2023-03-01T14:55:48;10.40;20.20
13245;DHT22;6689;53.400;12.486;2023-03-01T14:58:21;10.30;1.00
13245;DHT22;6689;53.400;12.486;2023-03-01T15:00:51;10.30;2.20
13245;DHT22;6689;53.400;12.486;2023-03-01T15:03:25;10.30;24.80
13245;DHT22;6689;53.400;12.486;2023-03-01T15:05:55;10.30;1.00
13245;DHT22;6689;53.400;12.486;2023-03-01T15:08:24;10.30;1.70
13245;DHT22;6689;53.400;12.486;2023-03-01T15:11:03;10.40;1.00
13245;DHT22;6689;53.400;12.486;2023-03-01T15:13:32;10.40;1.00
13245;DHT22;6689;53.400;12.486;2023-03-01T15:16:08;10.40;1.00
13245;DHT22;6689;53.400;12.486;2023-03-01T15:18:38;10.30;23.30
13245;DHT22;6689;53.400;12.486;2023-03-01T15:21:16;10.30;22.80
13245;DHT22;6689;53.400;12.486;2023-03-01T15:23:49;10.20;18.50
13245;DHT22;6689;53.400;12.486;2023-03-01T15:26:23;10.20;20.90
13245;DHT22;6689;53.400;12.486;2023-03-01T15:28:53;10.10;6.20
13245;DHT22;6689;53.400;12.486;2023-03-01T15:31:25;10.00;14.20
13245;DHT22;6689;53.400;12.486;2023-03-01T15:34:08;10.00;26.60
13245;DHT22;6689;53.400;12.486;2023-03-01T15:36:41;10.00;2.60
13245;DHT22;6689;53.400;12.486;2023-03-01T15:39:40;9.90;5.20
13245;DHT22;6689;53.400;12.486;2023-03-01T15:42:10;9.90;8.70
13245;DHT22;6689;53.400;12.486;2023-03-01T15:44:39;9.80;10.50
13245;DHT22;6689;53.400;12.486;2023-03-01T15:47:26;9.80;11.80
13245;DHT22;6689;53.400;12.486;2023-03-01T15:49:55;9.70;5.30
13245;DHT22;6689;53.400;12.486;2023-03-01T15:52:26;9.70;10.10
13245;DHT22;6689;53.400;12.486;2023-03-01T15:54:56;9.70;9.30
13245;DHT22;6689;53.400;12.486;2023-03-01T15:57:24;9.60;40.00
13245;DHT22;6689;53.400;12.486;2023-03-01T15:59:51;9.60;14.00
13245;DHT22;6689;53.400;12.486;2023-03-01T16:02:19;9.60;6.90
13245;DHT22;6689;53.400;12.486;2023-03-01T16:04:47;9.60;44.90
13245;DHT22;6689;53.400;12.486;2023-03-01T16:07:16;9.60;18.60
13245;DHT22;6689;53.400;12.486;2023-03-01T16:09:43;9.50;16.60
13245;DHT22;6689;53.400;12.486;2023-03-01T16:12:14;9.50;54.30
13245;DHT22;6689;53.400;12.486;2023-03-01T16:14:41;9.50;12.70
13245;DHT22;6689;53.400;12.486;2023-03-01T16:17:09;9.50;46.80
13245;DHT22;6689;53.400;12.486;2023-03-01T16:19:36;9.40;53.70
13245;DHT22;6689;53.400;12.486;2023-03-01T16:22:04;9.40;50.00
13245;DHT22;6689;53.400;12.486;2023-03-01T16:24:32;9.30;49.90
13245;DHT22;6689;53.400;12.486;2023-03-01T16:27:01;9.30;49.50
13245;DHT22;6689;53.400;12.486;2023-03-01T16:29:29;9.30;50.90